Time;durP1;ratioP1;P1;durP2;ratioP2;P2;SDS_P1;SDS_P2;PMS_P1;PMS_P2;Temp;Humidity;BMP_temperature;BMP_pressure;BME280_temperature;BME280_humidity;BME280_pressure;Samples;Min_cycle;Max_cycle;Signal;HPM_P1;HPM_P2
2021/06/01 00:01:43;;;;;;;6.23;5.83;;;10.60;99.90;;;11.45;69.74;98130.78;5221443;28;20193;-58
2021/06/01 00:04:16;;;;;;;6.83;6.33;;;10.60;99.90;;;11.48;69.43;98136.09;5227208;28;20743;-58
2021/06/01 00:06:50;;;;;;;6.53;6.03;;;10.60;99.90;;;11.38;68.52;98134.66;5229258;28;20208;-58
2021/06/01 00:09:24;;;;;;;6.30;5.80;;;10.50;99.90;;;11.35;68.82;98134.47;5235178;28;20220;-58
2021/06/01 00:11:56;;;;;;;6.33;5.83;;;10.40;99.90;;;11.30;68.13;98140.13;5221323;28;20213;-58
2021/06/01 00:14:29;;;;;;;6.87;6.30;;;10.40;99.90;;;11.28;69.84;98138.38;5221508;28;20667;-58
2021/06/01 00:17:02;;;;;;;7.33;6.83;;;10.40;99.90;;;11.19;70.27;98137.81;5227442;28;20274;-58
2021/06/01 00:19:35;;;;;;;7.07;6.47;;;10.30;99.90;;;11.10;69.48;98134.69;5235938;28;20219;-58
2021/06/01 00:22:09;;;;;;;6.50;6.00;;;10.30;99.90;;;11.11;69.88;98144.16;5241547;28;20209;-58
2021/06/01 00:24:41;;;;;;;6.93;6.33;;;10.20;99.90;;;11.11;69.07;98141.59;5229027;28;20689;-58
2021/06/01 00:27:14;;;;;;;7.23;6.67;;;10.20;99.90;;;11.03;69.91;98130.03;5233087;28;20202;-58
2021/06/01 00:29:46;;;;;;;6.67;6.17;;;10.20;99.90;;;11.01;70.32;98137.59;5226504;28;20205;-58
2021/06/01 00:32:19;;;;;;;6.57;6.07;;;10.10;99.90;;;11.03;69.71;98140.25;5241351;28;20665;-57
2021/06/01 00:34:51;;;;;;;6.83;6.33;;;10.10;99.90;;;10.92;69.70;98133.63;5225564;28;20219;-58
2021/06/01 00:37:25;;;;;;;6.67;6.17;;;9.90;99.90;;;10.93;70.44;98130.25;5232385;28;20205;-58
2021/06/01 00:39:57;;;;;;;6.83;6.33;;;10.00;99.90;;;10.95;71.69;98127.00;5238534;28;20684;-57
2021/06/01 00:42:30;;;;;;;6.77;6.27;;;10.20;99.90;;;10.99;70.64;98128.97;5235667;28;20207;-56
2021/06/01 00:45:04;;;;;;;6.77;6.17;;;10.10;99.90;;;10.86;70.01;98125.59;5245007;28;20224;-58
2021/06/01 00:47:36;;;;;;;7.10;6.47;;;10.00;99.90;;;10.71;69.98;98121.31;5224144;28;20221;-58
2021/06/01 00:50:10;;;;;;;7.03;6.53;;;9.80;99.90;;;10.63;71.11;98127.63;5223264;28;20193;-58
2021/06/01 00:52:43;;;;;;;7.20;6.60;;;9.80;99.90;;;10.58;70.90;98126.47;5236505;28;20314;-58
2021/06/01 00:55:17;;;;;;;7.40;6.73;;;9.80;99.90;;;10.64;71.46;98128.50;5226748;28;20540;-58
2021/06/01 00:57:49;;;;;;;7.00;6.40;;;9.80;99.90;;;10.68;71.61;98131.34;5235598;28;20590;-58
2021/06/01 01:00:48;;;;;;;7.37;6.73;;;9.80;99.90;;;10.66;71.61;98126.94;5236220;28;20203;-58
2021/06/01 01:03:21;;;;;;;7.30;6.73;;;9.80;99.90;;;10.60;71.11;98130.00;5239035;28;20197;-57
2021/06/01 01:06:02;;;;;;;7.43;6.93;;;9.70;99.90;;;10.52;71.20;98124.41;5244382;28;20213;-56
2021/06/01 01:08:48;;;;;;;6.43;6.03;;;9.70;99.90;;;10.50;72.36;98122.53;5240757;28;20684;-58
2021/06/01 01:11:29;;;;;;;6.17;5.77;;;9.60;99.90;;;10.54;71.90;98124.50;5234727;28;20197;-56
2021/06/01 01:14:07;;;;;;;7.03;6.43;;;9.60;99.90;;;10.51;71.03;98125.22;5230653;28;20194;-58
2021/06/01 01:16:47;;;;;;;6.50;6.03;;;9.60;99.90;;;10.47;71.97;98120.72;5236474;28;20200;-58
2021/06/01 01:19:41;;;;;;;7.30;6.80;;;9.50;99.90;;;10.43;71.88;98112.75;5234859;28;20226;-57
2021/06/01 01:22:16;;;;;;;7.53;6.93;;;9.50;99.90;;;10.34;71.33;98119.06;5246693;28;20263;-56
2021/06/01 01:25:03;;;;;;;7.87;7.27;;;9.50;99.90;;;10.14;71.93;98115.22;5227226;28;20599;-58
2021/06/01 01:28:02;;;;;;;7.80;7.17;;;9.30;99.90;;;9.97;72.46;98114.97;5238808;28;20702;-58
2021/06/01 01:30:43;;;;;;;7.63;7.13;;;9.10;99.90;;;9.98;72.50;98111.59;5236703;28;20197;-58
2021/06/01 01:33:24;;;;;;;8.00;7.33;;;9.10;99.90;;;9.94;72.54;98110.53;5233797;28;20216;-58
2021/06/01 01:36:00;;;;;;;7.60;6.90;;;9.10;99.90;;;9.87;73.03;98113.47;5229097;28;20600;-58
2021/06/01 01:38:35;;;;;;;7.60;7.10;;;9.00;99.90;;;9.96;73.18;98118.28;5231148;28;20217;-59
2021/06/01 01:41:12;;;;;;;8.03;7.30;;;9.10;99.90;;;10.05;74.44;98113.78;5237201;28;20676;-58
2021/06/01 01:43:48;;;;;;;8.13;7.53;;;9.20;99.90;;;9.99;74.11;98123.59;5234881;28;20200;-56
2021/06/01 01:46:32;;;;;;;7.27;6.60;;;9.10;99.90;;;10.03;73.30;98125.56;5243904;28;20196;-58
2021/06/01 01:49:06;;;;;;;7.90;7.23;;;9.10;99.90;;;10.01;73.39;98130.56;5223648;28;20223;-58
2021/06/01 01:51:41;;;;;;;7.50;6.90;;;9.10;99.90;;;9.96;73.42;98118.28;5238399;28;20193;-59
2021/06/01 01:54:16;;;;;;;7.50;6.97;;;9.00;99.90;;;9.95;73.19;98121.63;5226190;28;20228;-59
2021/06/01 01:56:51;;;;;;;7.20;6.60;;;9.00;99.90;;;10.00;72.63;98121.13;5237588;28;20192;-58
2021/06/01 01:59:27;;;;;;;7.00;6.30;;;9.00;99.90;;;9.97;73.28;98117.50;5227515;28;20220;-58
2021/06/01 02:01:59;;;;;;;7.03;6.37;;;9.00;99.90;;;9.89;72.36;98115.34;5229678;28;20203;-59
2021/06/01 02:04:34;;;;;;;6.63;6.03;;;8.90;99.90;;;9.82;72.65;98119.97;5238464;28;20270;-59
2021/06/01 02:07:06;;;;;;;6.93;6.43;;;8.80;99.90;;;9.77;73.71;98116.25;5234549;28;20838;-58
2021/06/01 02:09:39;;;;;;;7.20;6.70;;;8.80;99.90;;;9.72;73.11;98121.03;5229654;28;20657;-59
2021/06/01 02:12:12;;;;;;;6.83;6.33;;;8.70;99.90;;;9.64;73.64;98123.13;5222707;28;20196;-59
2021/06/01 02:14:44;;;;;;;7.50;6.90;;;8.60;99.90;;;9.66;73.46;98116.41;5242051;28;20218;-59
2021/06/01 02:17:17;;;;;;;6.60;6.10;;;8.60;99.90;;;9.66;73.43;98120.66;5238037;28;20562;-56
2021/06/01 02:19:50;;;;;;;7.53;7.03;;;8.60;99.90;;;9.57;74.33;98120.06;5224796;28;20205;-58
2021/06/01 02:25:32;;;;;;;7.40;6.80;;;8.70;99.90;;;9.60;74.13;98122.81;5234270;28;20212;-59
2021/06/01 02:28:12;;;;;;;6.37;5.93;;;8.60;99.90;;;9.62;74.46;98119.56;5224338;28;20226;-58
2021/06/01 02:30:55;;;;;;;6.73;6.23;;;8.70;99.90;;;9.56;74.21;98128.50;5224958;28;20195;-58
2021/06/01 02:33:32;;;;;;;7.07;6.53;;;8.50;99.90;;;9.47;75.01;98131.31;5220688;28;20201;-59
2021/06/01 02:36:08;;;;;;;7.20;6.70;;;8.40;99.90;;;9.44;74.78;98126.91;5231420;28;20198;-58
2021/06/01 02:38:42;;;;;;;7.47;6.87;;;8.50;99.90;;;9.36;74.74;98122.97;5234453;28;20236;-58
2021/06/01 02:41:15;;;;;;;7.40;6.80;;;8.40;99.90;;;9.27;74.77;98121.47;5218596;28;20197;-58
2021/06/01 02:43:48;;;;;;;7.53;6.80;;;8.40;99.90;;;9.27;75.61;98124.00;5227933;28;20338;-57
2021/06/01 02:46:21;;;;;;;7.10;6.57;;;8.40;99.90;;;9.20;76.31;98120.19;5227324;28;20217;-58
2021/06/01 02:48:55;;;;;;;7.27;6.77;;;8.40;99.90;;;9.21;74.87;98119.38;5226146;28;20236;-58
2021/06/01 02:51:29;;;;;;;7.03;6.53;;;8.30;99.90;;;9.11;75.22;98114.47;5230819;28;20271;-57
2021/06/01 02:54:03;;;;;;;7.27;6.67;;;8.20;99.90;;;9.13;75.15;98120.53;5221599;28;20197;-58
2021/06/01 02:56:36;;;;;;;7.50;6.90;;;8.20;99.90;;;9.14;76.06;98114.69;5229016;28;20567;-58
2021/06/01 02:59:09;;;;;;;6.97;6.47;;;8.30;99.90;;;9.16;75.47;98118.22;5234953;28;20212;-58
2021/06/01 03:01:41;;;;;;;6.83;6.23;;;8.20;99.90;;;9.05;75.23;98121.72;5240046;28;20201;-58
2021/06/01 03:04:14;;;;;;;6.83;6.33;;;8.00;99.90;;;9.01;75.48;98118.06;5230692;28;20201;-58
2021/06/01 03:06:48;;;;;;;6.80;6.20;;;8.10;99.90;;;9.05;75.72;98117.50;5242259;28;20545;-57
2021/06/01 03:09:20;;;;;;;7.63;7.07;;;8.00;99.90;;;9.02;76.52;98125.81;5230920;28;20214;-58
2021/06/01 03:11:53;;;;;;;7.37;6.77;;;8.10;99.90;;;9.05;76.29;98114.97;5233395;28;20663;-58
2021/06/01 03:14:26;;;;;;;7.77;7.10;;;8.10;99.90;;;8.94;76.16;98116.78;5235901;28;20193;-58
2021/06/01 03:16:58;;;;;;;7.73;7.03;;;8.00;99.90;;;9.01;75.88;98118.06;5237886;28;20224;-58
2021/06/01 03:19:31;;;;;;;7.03;6.53;;;8.10;99.90;;;8.92;75.92;98120.88;5225281;28;20213;-58
2021/06/01 03:22:05;;;;;;;7.83;7.23;;;8.00;99.90;;;9.02;76.23;98120.72;5241494;28;20226;-59
2021/06/01 03:24:38;;;;;;;7.43;6.63;;;8.10;99.90;;;8.97;75.52;98116.97;5237898;28;20573;-56
2021/06/01 03:27:10;;;;;;;7.57;6.90;;;8.00;99.90;;;8.90;75.28;98114.81;5238050;28;20629;-58
2021/06/01 03:29:43;;;;;;;7.00;6.50;;;7.90;99.90;;;8.87;75.08;98114.59;5231644;28;20188;-58
2021/06/01 03:32:15;;;;;;;7.03;6.53;;;7.80;99.90;;;8.78;75.66;98114.88;5231342;28;20198;-58
2021/06/01 03:34:48;;;;;;;7.13;6.60;;;7.80;99.90;;;8.78;75.78;98108.88;5240225;28;20736;-59
2021/06/01 03:37:22;;;;;;;7.17;6.57;;;7.80;99.90;;;8.75;76.10;98108.66;5233707;28;20255;-58
2021/06/01 03:39:54;;;;;;;7.00;6.50;;;7.80;99.90;;;8.73;76.34;98110.25;5238530;28;20193;-56
2021/06/01 03:42:27;;;;;;;8.03;7.43;;;7.80;99.90;;;8.75;76.23;98118.84;5228773;28;20212;-57
2021/06/01 03:45:00;;;;;;;7.37;6.80;;;7.80;99.90;;;8.72;76.01;98114.44;5238887;28;20221;-58
2021/06/01 03:47:32;;;;;;;7.60;7.10;;;7.80;99.90;;;8.71;76.07;98106.69;5228973;28;20217;-58
2021/06/01 03:50:07;;;;;;;7.30;6.70;;;7.80;99.90;;;8.70;75.80;98110.00;5225422;28;20201;-58
2021/06/01 03:52:41;;;;;;;6.37;5.93;;;7.70;99.90;;;8.62;76.05;98106.94;5231189;28;20193;-58
2021/06/01 03:55:14;;;;;;;7.50;6.90;;;7.70;99.90;;;8.60;76.08;98113.59;5230068;28;20581;-59
2021/06/01 03:57:48;;;;;;;7.63;6.93;;;7.70;99.90;;;8.62;76.51;98112.06;5227145;28;20205;-56
2021/06/01 04:00:25;;;;;;;7.60;7.00;;;7.70;99.90;;;8.68;76.52;98106.50;5226264;28;20284;-58
2021/06/01 04:02:58;;;;;;;7.37;6.77;;;7.80;99.90;;;8.71;76.39;98112.66;5232987;28;20762;-58
2021/06/01 04:05:31;;;;;;;6.50;6.00;;;7.80;99.90;;;8.71;76.06;98117.75;5230220;28;20562;-57
2021/06/01 04:08:06;;;;;;;7.10;6.50;;;7.80;99.90;;;8.74;75.78;98105.22;5240150;28;20777;-58
2021/06/01 04:10:38;;;;;;;7.13;6.63;;;7.90;99.90;;;8.85;74.60;98105.97;5226310;28;20193;-58
2021/06/01 04:13:11;;;;;;;7.23;6.73;;;7.90;99.90;;;8.84;75.99;98104.19;5232942;28;20207;-57
2021/06/01 04:15:43;;;;;;;6.80;6.37;;;8.00;99.90;;;8.83;75.84;98119.38;5233973;28;20193;-59
2021/06/01 04:18:16;;;;;;;7.77;7.17;;;7.90;99.90;;;8.77;76.26;98114.75;5221271;28;20224;-57
2021/06/01 04:20:48;;;;;;;8.27;7.67;;;7.90;99.90;;;8.70;76.45;98118.56;5235135;28;20201;-57
2021/06/01 04:23:22;;;;;;;7.50;6.83;;;7.90;99.90;;;8.87;74.94;98119.72;5225307;28;20194;-58
2021/06/01 04:25:55;;;;;;;7.83;7.17;;;7.90;99.90;;;8.78;76.53;98119.06;5242942;28;20682;-58
2021/06/01 04:28:27;;;;;;;7.57;6.97;;;7.90;99.90;;;8.85;76.63;98120.38;5223500;28;20225;-58
2021/06/01 04:31:00;;;;;;;8.00;7.40;;;8.00;99.90;;;8.81;76.03;98111.63;5222544;28;20549;-58
2021/06/01 04:33:33;;;;;;;6.90;6.40;;;8.00;99.90;;;8.88;76.07;98118.91;5238695;28;20207;-58
2021/06/01 04:36:06;;;;;;;8.03;7.23;;;8.00;99.90;;;9.00;75.74;98114.63;5245626;28;20700;-58
2021/06/01 04:38:40;;;;;;;7.53;6.93;;;8.10;99.90;;;9.15;75.64;98122.41;5235664;28;20218;-59
2021/06/01 04:41:13;;;;;;;7.67;7.07;;;8.30;99.90;;;9.36;75.56;98124.66;5238429;28;20204;-58
2021/06/01 04:43:45;;;;;;;7.67;6.97;;;8.40;99.90;;;9.49;74.62;98124.66;5240466;28;20204;-58
2021/06/01 04:46:18;;;;;;;7.73;7.13;;;8.50;99.90;;;9.74;73.44;98127.13;5228942;28;20227;-57
2021/06/01 04:48:51;;;;;;;7.80;7.30;;;8.70;99.90;;;9.82;72.59;98119.97;5224159;28;20271;-58
2021/06/01 04:51:23;;;;;;;8.03;7.33;;;8.80;99.90;;;10.13;72.96;98108.34;5228639;28;20189;-59
2021/06/01 04:53:59;;;;;;;8.27;7.60;;;9.10;99.90;;;10.54;71.44;98109.19;5232765;28;20676;-58
2021/06/01 04:56:31;;;;;;;7.80;7.07;;;9.40;99.90;;;11.23;69.77;98109.06;5228394;28;20188;-57
2021/06/01 04:59:05;;;;;;;7.67;7.17;;;10.10;99.90;;;12.08;65.17;98093.41;5227163;28;20217;-58
2021/06/01 05:01:38;;;;;;;7.13;6.53;;;10.80;99.90;;;12.92;63.39;98091.84;5230212;28;20670;-59
2021/06/01 05:04:11;;;;;;;7.30;6.80;;;11.60;99.90;;;13.62;59.67;98095.44;5241505;28;20288;-59
2021/06/01 05:06:44;;;;;;;7.75;7.05;;;12.10;99.90;;;14.13;57.53;98090.13;5240370;28;20222;-59
2021/06/01 05:09:18;;;;;;;7.28;6.78;;;12.50;99.90;;;14.58;55.04;98100.81;5230623;28;20214;-59
2021/06/01 05:11:50;;;;;;;6.85;6.25;;;12.80;99.90;;;14.84;54.29;98097.69;5220281;28;20703;-59
2021/06/01 05:14:23;;;;;;;6.47;5.97;;;12.80;99.90;;;15.36;53.92;98096.47;5222334;28;20198;-59
2021/06/01 05:16:56;;;;;;;7.40;6.85;;;13.10;99.90;;;15.65;52.82;98083.91;5225706;28;20195;-58
2021/06/01 05:19:28;;;;;;;6.95;6.45;;;13.50;99.90;;;16.15;51.93;98088.53;5230858;28;20232;-59
2021/06/01 05:22:01;;;;;;;6.75;6.25;;;13.90;99.90;;;16.38;51.20;98092.00;5219177;28;20201;-60
2021/06/01 05:24:35;;;;;;;7.00;6.50;;;14.10;99.50;;;16.81;50.20;98088.47;5226413;28;20198;-59
2021/06/01 05:27:08;;;;;;;6.70;6.10;;;14.60;98.70;;;16.93;49.53;98088.03;5218311;28;20221;-59
2021/06/01 05:29:44;;;;;;;7.63;7.00;;;14.70;98.60;;;17.31;48.94;98080.72;5227073;28;20201;-59
2021/06/01 05:35:18;;;;;;;6.28;5.88;;;15.30;97.40;;;17.91;47.46;98081.03;5217227;28;20204;-63
2021/06/01 05:37:51;;;;;;;6.50;6.00;;;15.50;96.70;;;18.19;47.25;98074.13;5223515;28;20696;-62
2021/06/01 05:40:25;;;;;;;6.03;5.53;;;15.50;97.00;;;18.48;47.02;98074.13;5236292;28;20197;-62
2021/06/01 05:42:58;;;;;;;6.75;5.93;;;15.80;96.70;;;18.66;46.32;98079.84;5229328;28;20205;-63
2021/06/01 05:45:31;;;;;;;6.40;5.90;;;16.10;96.00;;;18.91;45.86;98081.41;5229280;28;20212;-63
2021/06/01 05:48:05;;;;;;;6.18;5.63;;;16.10;96.00;;;19.11;44.89;98075.09;5231508;28;20226;-63
2021/06/01 05:50:39;;;;;;;6.30;5.80;;;16.30;95.50;;;19.45;43.84;98075.06;5225490;28;20216;-63
2021/06/01 05:53:12;;;;;;;5.63;5.22;;;16.50;95.30;;;19.71;44.04;98070.56;5233716;28;20514;-63
2021/06/01 05:55:46;;;;;;;5.95;5.43;;;16.60;95.10;;;19.95;43.56;98078.09;5238490;28;20203;-63
2021/06/01 05:58:19;;;;;;;6.30;5.45;;;16.80;94.70;;;20.24;42.80;98070.97;5230526;28;20721;-63
2021/06/01 06:00:52;;;;;;;6.30;5.70;;;16.90;94.40;;;19.99;44.13;98083.34;5232549;28;20219;-63
2021/06/01 06:03:25;;;;;;;5.60;5.10;;;16.90;95.10;;;20.35;42.72;98071.19;5237752;28;20287;-63
2021/06/01 06:05:59;;;;;;;6.13;5.38;;;17.20;94.20;;;20.50;43.35;98076.72;5237239;28;20221;-63
2021/06/01 06:08:31;;;;;;;5.97;5.47;;;17.40;94.90;;;20.54;43.10;98075.94;5232452;28;20229;-62
2021/06/01 06:11:06;;;;;;;5.65;4.90;;;17.50;94.30;;;21.14;41.26;98067.63;5230710;28;20196;-63
2021/06/01 06:13:39;;;;;;;5.20;4.70;;;18.10;93.30;;;21.67;40.78;98071.19;5224239;28;20208;-63
2021/06/01 06:16:17;;;;;;;5.10;4.63;;;18.60;92.60;;;21.45;40.32;98060.41;5225683;28;20193;-63
2021/06/01 06:18:57;;;;;;;4.97;4.57;;;18.40;92.10;;;21.45;40.28;98070.81;5226458;28;20287;-62
2021/06/01 06:21:29;;;;;;;4.90;4.60;;;18.70;92.10;;;21.89;39.09;98068.09;5221577;28;20193;-63
2021/06/01 06:24:03;;;;;;;5.28;4.80;;;19.00;90.90;;;22.65;37.95;98072.66;5228853;28;20201;-62
2021/06/01 06:26:37;;;;;;;5.32;4.93;;;19.20;90.80;;;22.87;36.99;98074.66;5228654;28;20213;-63
2021/06/01 06:29:09;;;;;;;5.30;4.88;;;19.70;89.10;;;23.19;35.55;98068.97;5225445;28;20218;-63
2021/06/01 06:31:42;;;;;;;5.20;4.70;;;20.00;86.30;;;23.69;34.83;98070.28;5226604;28;20197;-63
2021/06/01 06:34:14;;;;;;;4.90;4.40;;;20.40;85.60;;;24.08;34.38;98066.25;5222261;28;20197;-63
2021/06/01 06:36:47;;;;;;;4.93;4.63;;;20.70;84.50;;;24.27;34.21;98068.13;5226091;28;20197;-63
2021/06/01 06:39:20;;;;;;;5.45;4.95;;;20.90;84.70;;;24.62;33.80;98067.47;5236720;28;20227;-63
2021/06/01 06:41:54;;;;;;;4.90;4.57;;;21.10;84.10;;;24.54;33.14;98074.41;5232870;28;20193;-63
2021/06/01 06:44:27;;;;;;;4.78;4.30;;;21.20;81.90;;;24.72;33.91;98059.69;5239156;28;20203;-64
2021/06/01 06:47:06;;;;;;;5.40;4.57;;;21.70;82.00;;;24.62;32.53;98064.88;5238869;28;20612;-63
2021/06/01 06:49:40;;;;;;;5.00;4.45;;;21.60;80.00;;;24.71;32.63;98050.06;5233681;28;20283;-63
2021/06/01 06:52:13;;;;;;;4.50;4.10;;;21.50;80.80;;;25.12;32.16;98057.19;5223429;28;20219;-64
2021/06/01 06:54:47;;;;;;;4.72;4.32;;;21.90;79.60;;;25.42;31.48;98055.53;5222618;28;20722;-62
2021/06/01 06:57:21;;;;;;;4.80;4.22;;;22.30;78.00;;;25.42;31.83;98052.03;5226775;28;20191;-63
2021/06/01 06:59:53;;;;;;;4.47;4.07;;;22.60;77.80;;;26.20;31.56;98059.88;5231402;28;20197;-62
2021/06/01 07:02:29;;;;;;;4.40;4.00;;;23.00;78.10;;;25.95;31.32;98051.19;5228219;28;20659;-63
2021/06/01 07:05:01;;;;;;;3.72;3.53;;;23.20;76.00;;;26.14;31.00;98055.53;5219362;28;20197;-63
2021/06/01 07:07:34;;;;;;;4.10;3.80;;;23.60;74.70;;;26.23;31.03;98052.00;5230024;28;20703;-62
2021/06/01 07:10:10;;;;;;;3.38;3.17;;;23.60;74.90;;;26.90;29.29;98049.19;5238603;28;20609;-62
2021/06/01 07:12:45;;;;;;;3.55;3.30;;;24.00;72.30;;;26.74;30.21;98040.50;5219640;28;20192;-63
2021/06/01 07:15:47;;;;;;;3.90;3.60;;;24.10;73.70;;;26.21;28.20;98048.50;5223700;28;20249;-62
2021/06/01 07:18:20;;;;;;;3.55;3.25;;;23.80;69.20;;;26.60;28.76;98042.31;5201130;28;20224;-59
2021/06/01 07:20:54;;;;;;;3.63;3.33;;;24.00;70.10;;;26.69;28.71;98028.28;5237464;28;20648;-59
2021/06/01 07:23:27;;;;;;;3.40;3.10;;;24.30;69.60;;;26.11;28.22;98044.19;5238240;28;20199;-59
2021/06/01 07:25:59;;;;;;;3.47;3.22;;;24.00;67.40;;;25.38;28.63;98038.06;5240490;28;20614;-60
2021/06/01 07:28:34;;;;;;;3.00;2.80;;;23.60;67.20;;;25.85;28.83;98026.75;5245977;28;20211;-60
2021/06/01 07:31:07;;;;;;;3.35;3.15;;;23.80;67.80;;;25.34;29.92;98036.31;5233545;28;20641;-61
2021/06/01 07:33:40;;;;;;;3.30;3.00;;;23.50;68.40;;;25.68;29.21;98028.47;5231001;28;20196;-59
2021/06/01 07:36:13;;;;;;;4.80;3.13;;;23.60;67.90;;;25.55;30.01;98040.69;5245609;28;20701;-60
2021/06/01 07:38:46;;;;;;;3.33;3.10;;;23.70;68.50;;;26.20;27.40;98036.31;5230509;28;20664;-60
2021/06/01 07:41:19;;;;;;;3.22;2.92;;;23.90;65.20;;;26.49;27.73;98041.44;5233684;28;20207;-61
2021/06/01 07:43:54;;;;;;;3.40;2.92;;;24.30;66.00;;;26.77;25.54;98026.50;5239730;28;20196;-60
2021/06/01 07:46:26;;;;;;;2.88;2.70;;;24.80;61.00;;;26.06;26.34;98029.31;5237307;28;20216;-60
2021/06/01 07:49:00;;;;;;;2.97;2.78;;;25.10;60.00;;;27.13;24.88;98014.94;5232654;28;20216;-60
2021/06/01 07:51:32;;;;;;;3.83;2.90;;;25.50;59.00;;;26.98;25.54;98017.66;5224989;28;20195;-60
2021/06/01 07:54:06;;;;;;;3.10;2.63;;;25.20;60.20;;;27.59;24.45;98017.25;5227563;28;20197;-62
2021/06/01 07:56:38;;;;;;;2.97;2.78;;;25.30;60.00;;;27.65;25.15;98016.34;5225158;28;20644;-61
2021/06/01 07:59:13;;;;;;;3.10;2.90;;;25.60;60.30;;;27.91;23.29;98023.16;5246534;28;20219;-61
2021/06/01 08:01:47;;;;;;;3.70;3.40;;;25.70;57.60;;;27.96;23.44;98011.69;5220104;28;20195;-61
2021/06/01 08:04:19;;;;;;;3.38;3.08;;;25.90;57.50;;;27.22;23.94;98021.91;5241548;28;20230;-60
2021/06/01 08:06:52;;;;;;;3.10;2.90;;;25.80;57.40;;;27.06;24.76;98015.84;5235109;28;20556;-61
2021/06/01 08:09:24;;;;;;;3.92;2.92;;;25.20;58.80;;;27.24;24.43;98014.88;5228352;28;20226;-62
2021/06/01 08:11:57;;;;;;;3.00;2.80;;;24.90;59.10;;;27.63;25.48;98007.59;5227002;28;20193;-61
2021/06/01 08:14:31;;;;;;;2.65;2.45;;;25.10;60.80;;;27.15;24.62;98015.81;5223686;28;20414;-60
2021/06/01 08:17:04;;;;;;;3.05;2.80;;;25.40;58.10;;;27.33;24.40;98009.59;5226595;28;20659;-60
2021/06/01 08:19:39;;;;;;;3.03;2.83;;;25.40;58.20;;;26.87;25.23;98012.47;5219597;28;20201;-60
2021/06/01 08:22:15;;;;;;;3.15;2.95;;;25.70;58.60;;;26.47;25.17;98015.25;5226874;28;20196;-60
2021/06/01 08:24:48;;;;;;;3.08;2.88;;;25.20;57.70;;;26.79;24.50;98010.78;5218493;28;20192;-60
2021/06/01 08:27:21;;;;;;;2.85;2.65;;;25.20;57.20;;;26.07;25.94;98011.88;5221631;28;20223;-60
2021/06/01 08:29:56;;;;;;;3.25;3.00;;;25.10;58.20;;;26.05;25.97;98003.16;5221188;28;20227;-60
2021/06/01 08:32:29;;;;;;;3.08;2.83;;;25.10;58.20;;;25.76;26.03;98018.88;5218419;28;20213;-60
2021/06/01 08:35:01;;;;;;;2.88;2.78;;;24.70;57.90;;;25.83;26.46;98005.78;5229840;28;20203;-60
2021/06/01 08:37:34;;;;;;;3.00;2.80;;;24.70;59.00;;;25.63;26.15;98003.16;5226989;28;20220;-60
2021/06/01 08:40:09;;;;;;;3.40;3.10;;;24.70;58.30;;;25.63;26.60;97997.06;5230543;28;20204;-60
2021/06/01 08:42:41;;;;;;;2.70;2.60;;;24.70;58.50;;;25.58;24.87;98010.16;5233405;28;20196;-61
2021/06/01 08:45:16;;;;;;;3.17;2.88;;;24.90;56.30;;;25.24;26.23;97997.91;5228213;28;20207;-60
2021/06/01 08:47:49;;;;;;;3.30;3.10;;;24.20;57.70;;;25.32;26.27;97996.19;5228553;28;20221;-60
2021/06/01 08:50:22;;;;;;;3.20;3.00;;;24.50;58.00;;;25.03;27.68;97994.38;5224071;28;20208;-60
2021/06/01 08:52:54;;;;;;;3.30;3.05;;;24.30;60.10;;;25.11;26.58;97992.66;5239850;28;20193;-60
2021/06/01 08:55:27;;;;;;;3.25;2.95;;;24.70;57.90;;;25.17;26.26;97997.91;5236588;28;20207;-60
2021/06/01 08:57:59;;;;;;;3.33;3.03;;;24.40;57.90;;;24.73;26.59;97989.97;5223646;28;20214;-60
2021/06/01 09:00:34;;;;;;;3.40;3.10;;;24.10;57.60;;;24.41;27.01;97993.31;5237698;28;20198;-60
2021/06/01 09:03:10;;;;;;;3.47;2.90;;;23.80;57.70;;;24.14;27.39;98006.22;5232924;28;20193;-60
2021/06/01 09:06:15;;;;;;;3.03;2.83;;;23.50;58.90;;;23.80;26.56;97999.03;5227536;28;20220;-60
2021/06/01 09:08:59;;;;;;;3.28;2.97;;;23.30;57.20;;;23.61;27.74;97997.16;5241068;28;20714;-61
2021/06/01 09:11:42;;;;;;;3.00;2.80;;;23.10;58.40;;;23.85;26.92;98006.91;5230356;28;20201;-60
2021/06/01 09:23:13;;;;;;;2.90;2.70;;;23.20;59.00;;;23.86;28.84;97981.69;5225092;28;20204;-61
2021/06/01 09:25:48;;;;;;;2.95;2.75;;;23.30;59.70;;;24.10;27.96;97973.13;5218367;28;20210;-61
2021/06/01 09:28:21;;;;;;;2.80;2.60;;;23.50;58.80;;;24.02;27.03;97978.31;5220249;28;20220;-61
2021/06/01 09:30:58;;;;;;;2.97;2.75;;;23.80;57.30;;;24.11;27.88;97977.47;5228418;28;20197;-60
2021/06/01 09:33:32;;;;;;;3.22;2.92;;;23.70;58.40;;;24.25;26.74;97971.44;5219262;28;20206;-60
2021/06/01 09:36:06;;;;;;;3.13;2.92;;;24.00;57.10;;;24.15;26.91;97959.22;5225062;28;20208;-61
2021/06/01 09:38:44;;;;;;;3.00;2.80;;;23.60;57.40;;;24.17;26.67;97965.31;5220291;28;20226;-60
2021/06/01 09:41:19;;;;;;;3.17;2.97;;;23.70;57.50;;;23.67;27.70;97976.31;5225702;28;20201;-60
2021/06/01 09:43:53;;;;;;;3.20;2.90;;;23.30;58.00;;;23.55;27.19;97969.28;5226516;28;20223;-61
2021/06/01 09:46:28;;;;;;;2.97;2.78;;;23.20;57.30;;;23.76;27.03;97973.78;5226298;28;20201;-60
2021/06/01 09:49:23;;;;;;;3.13;2.83;;;23.50;56.70;;;23.31;27.98;97964.72;5225982;28;20227;-60
2021/06/01 09:52:07;;;;;;;3.05;2.85;;;23.10;57.90;;;23.13;27.56;97961.97;5226314;28;20194;-60
2021/06/01 09:54:45;;;;;;;3.22;3.03;;;22.70;57.50;;;22.83;28.23;97952.94;5222562;28;20532;-60
2021/06/01 09:57:19;;;;;;;3.33;3.00;;;22.60;58.40;;;22.87;28.11;97936.50;5223773;28;20606;-59
2021/06/01 10:00:13;;;;;;;3.88;3.22;;;22.60;58.00;;;23.44;27.29;97941.34;5221474;28;20193;-61
2021/06/01 10:02:49;;;;;;;3.55;3.13;;;23.10;57.50;;;23.44;28.71;97941.34;5227467;28;20610;-60
2021/06/01 10:05:26;;;;;;;3.38;3.03;;;23.10;59.00;;;23.59;28.66;97949.28;5216877;28;20701;-60
2021/06/01 10:08:09;;;;;;;10.35;3.83;;;23.40;59.00;;;23.60;29.35;97937.97;5237046;28;20216;-61
2021/06/01 10:10:51;;;;;;;3.50;3.20;;;23.30;59.70;;;23.86;26.93;97935.56;5227628;28;20192;-60
2021/06/01 10:13:25;;;;;;;3.30;3.00;;;23.40;57.40;;;23.96;27.89;97931.28;5239819;28;20196;-61
2021/06/01 10:16:00;;;;;;;3.20;3.00;;;23.50;58.50;;;23.99;27.79;97924.31;5229420;28;20212;-60
2021/06/01 10:18:33;;;;;;;3.35;3.15;;;23.50;57.90;;;24.10;26.83;97926.13;5241532;28;20216;-61
2021/06/01 10:21:11;;;;;;;3.55;3.25;;;23.70;57.00;;;23.99;28.31;97920.84;5217221;28;20208;-61
2021/06/01 10:23:47;;;;;;;3.30;3.10;;;23.70;57.90;;;24.01;28.04;97934.78;5232312;28;20192;-61
2021/06/01 10:26:23;;;;;;;3.20;3.00;;;23.80;58.10;;;23.54;27.35;97927.50;5229232;28;20227;-60
2021/06/01 10:28:56;;;;;;;3.55;3.25;;;23.10;57.50;;;23.37;28.52;97927.38;5231799;28;20255;-61
2021/06/01 10:31:46;;;;;;;3.42;3.13;;;22.90;58.60;;;23.41;28.83;97926.56;5228345;28;20258;-61
2021/06/01 10:34:20;;;;;;;3.55;3.25;;;22.90;59.20;;;23.38;29.17;97916.97;5236018;28;20254;-61
2021/06/01 10:42:41;;;;;;;3.70;3.35;;;23.30;59.30;;;23.69;27.76;97909.31;5217465;28;20221;-60
2021/06/01 10:51:27;;;;;;;3.22;3.03;;;23.40;58.00;;;23.80;27.48;97912.88;5213936;28;20212;-61
2021/06/01 10:54:00;;;;;;;3.03;2.83;;;23.40;57.20;;;23.58;26.64;97904.06;5229394;28;20201;-61
2021/06/01 10:56:53;;;;;;;3.05;2.85;;;23.20;56.20;;;23.52;28.30;97903.13;5231212;28;20207;-60
2021/06/01 11:03:04;;;;;;;4.15;2.80;;;23.00;57.10;;;23.70;27.80;97889.31;5228419;28;20206;-61
2021/06/01 11:06:10;;;;;;;3.10;2.90;;;23.20;58.10;;;23.67;28.03;97895.41;5220860;28;20201;-61
2021/06/01 11:08:44;;;;;;;3.28;2.97;;;23.30;57.80;;;23.59;27.10;97894.47;5225979;28;20213;-61
2021/06/01 11:11:32;;;;;;;3.10;2.90;;;23.20;56.90;;;23.54;27.58;97886.59;5221153;28;20203;-60
2021/06/01 11:14:30;;;;;;;3.22;2.92;;;23.00;57.20;;;23.43;27.14;97882.19;5234712;28;20250;-61
2021/06/01 11:17:03;;;;;;;3.33;3.13;;;23.10;56.50;;;23.56;28.25;97887.50;5224093;28;20223;-60
2021/06/01 11:19:59;;;;;;;3.00;2.85;;;23.10;58.10;;;23.23;27.87;97890.75;5231663;28;20761;-60
2021/06/01 11:22:38;;;;;;;3.28;3.08;;;23.00;57.50;;;23.09;28.26;97882.84;5218676;28;20207;-61
2021/06/01 11:33:53;;;;;;;3.10;2.90;;;23.10;58.40;;;23.52;28.86;97867.47;5226325;28;20205;-61
2021/06/01 11:36:35;;;;;;;3.60;3.30;;;23.10;58.60;;;23.43;27.97;97871.75;5224672;28;20199;-60